ACA612 CYYZ-CYHZ
Flight info
| Callsign | ACA612 |
|---|---|
| Flight time | N/A |
| Altitude | 37000 |
| Route | DEDKI5 OLABA Q951 TALNO Q929 TOXAL DCT EBONY FUNDY5 |
| Aircraft | A320/M-SDE3FGHIRWY/LB1 |
Departure
| Time | N/A |
|---|---|
| Airport | Toronto Pearson International Airport (CYYZ) |
Arrival
| Time | 2026-05-04 22:34 |
|---|---|
| Airport | Halifax / Stanfield International Airport (CYHZ) |
| Time | Latitude | Longitude | Altitude | Speed | Heading |
|---|---|---|---|---|---|
| 2026-05-04 21:42 | 45.13797 | -71.83525 | 36803 ft | 479 kts | 85° |
| 2026-05-04 21:42 | 45.13948 | -71.75678 | 36799 ft | 479 kts | 85° |
| 2026-05-04 21:43 | 45.14123 | -71.66218 | 36799 ft | 479 kts | 85° |
| 2026-05-04 21:43 | 45.14257 | -71.56781 | 36799 ft | 480 kts | 88° |
| 2026-05-04 21:44 | 45.14048 | -71.47321 | 36806 ft | 481 kts | 91° |
| 2026-05-04 21:44 | 45.13683 | -71.39455 | 36809 ft | 481 kts | 92° |
| 2026-05-04 21:45 | 45.13255 | -71.30388 | 36808 ft | 481 kts | 91° |
| 2026-05-04 21:45 | 45.12879 | -71.20933 | 36805 ft | 481 kts | 90° |
| 2026-05-04 21:46 | 45.12542 | -71.11450 | 36811 ft | 486 kts | 91° |
| 2026-05-04 21:46 | 45.12181 | -71.01802 | 36805 ft | 494 kts | 91° |
| 2026-05-04 21:47 | 45.11788 | -70.92013 | 36801 ft | 501 kts | 91° |
| 2026-05-04 21:47 | 45.11376 | -70.82108 | 36805 ft | 507 kts | 91° |
| 2026-05-04 21:48 | 45.10976 | -70.72517 | 36796 ft | 510 kts | 91° |
| 2026-05-04 21:48 | 45.10544 | -70.62453 | 36797 ft | 512 kts | 91° |
| 2026-05-04 21:49 | 45.10103 | -70.52442 | 36799 ft | 502 kts | 91° |
| 2026-05-04 21:49 | 45.09664 | -70.42653 | 36803 ft | 497 kts | 92° |
| 2026-05-04 21:50 | 45.09222 | -70.32890 | 36793 ft | 497 kts | 92° |
| 2026-05-04 21:50 | 45.08780 | -70.23132 | 36795 ft | 497 kts | 92° |
| 2026-05-04 21:51 | 45.08324 | -70.13362 | 36793 ft | 497 kts | 92° |
| 2026-05-04 21:51 | 45.07847 | -70.03603 | 36794 ft | 497 kts | 92° |
| 2026-05-04 21:52 | 45.07365 | -69.93843 | 36791 ft | 497 kts | 92° |
| 2026-05-04 21:52 | 45.06882 | -69.84082 | 36794 ft | 498 kts | 92° |
| 2026-05-04 21:53 | 45.06392 | -69.74312 | 36792 ft | 498 kts | 92° |
| 2026-05-04 21:53 | 45.05891 | -69.64549 | 36795 ft | 498 kts | 93° |
| 2026-05-04 21:54 | 45.05377 | -69.54757 | 36785 ft | 502 kts | 93° |
| 2026-05-04 21:54 | 45.04852 | -69.44856 | 36780 ft | 508 kts | 93° |
| 2026-05-04 21:55 | 45.04318 | -69.34859 | 36780 ft | 512 kts | 93° |
| 2026-05-04 21:55 | 45.03766 | -69.24800 | 36784 ft | 514 kts | 94° |
| 2026-05-04 21:56 | 45.03207 | -69.14707 | 36791 ft | 515 kts | 94° |
| 2026-05-04 21:56 | 45.02626 | -69.04605 | 36782 ft | 516 kts | 94° |
| 2026-05-04 21:57 | 45.02039 | -68.94485 | 36787 ft | 517 kts | 94° |
| 2026-05-04 21:57 | 45.01451 | -68.84354 | 36795 ft | 518 kts | 94° |
| 2026-05-04 21:58 | 45.00845 | -68.74210 | 36799 ft | 519 kts | 94° |
| 2026-05-04 21:58 | 45.00235 | -68.64053 | 36804 ft | 519 kts | 95° |
| 2026-05-04 21:59 | 44.99617 | -68.53890 | 36810 ft | 519 kts | 95° |
| 2026-05-04 21:59 | 44.98988 | -68.43722 | 36828 ft | 520 kts | 95° |
| 2026-05-04 22:00 | 44.98345 | -68.33610 | 36822 ft | 520 kts | 95° |
| 2026-05-04 22:00 | 44.97693 | -68.23377 | 36822 ft | 520 kts | 95° |
| 2026-05-04 22:01 | 44.97040 | -68.13282 | 36821 ft | 520 kts | 95° |
| 2026-05-04 22:01 | 44.96377 | -68.03117 | 36807 ft | 520 kts | 96° |
| 2026-05-04 22:02 | 44.95700 | -67.92951 | 36807 ft | 520 kts | 96° |
| 2026-05-04 22:02 | 44.95012 | -67.82792 | 36804 ft | 520 kts | 96° |
| 2026-05-04 22:03 | 44.94318 | -67.72641 | 36799 ft | 520 kts | 96° |
| 2026-05-04 22:03 | 44.93615 | -67.62451 | 36793 ft | 521 kts | 96° |
| 2026-05-04 22:04 | 44.92899 | -67.52278 | 36808 ft | 521 kts | 96° |
| 2026-05-04 22:04 | 44.92175 | -67.42104 | 36795 ft | 521 kts | 96° |
| 2026-05-04 22:05 | 44.91445 | -67.31931 | 36795 ft | 521 kts | 97° |
| 2026-05-04 22:05 | 44.90699 | -67.21766 | 36798 ft | 521 kts | 97° |
| 2026-05-04 22:06 | 44.90250 | -67.11558 | 36804 ft | 522 kts | 90° |
| 2026-05-04 22:06 | 44.90252 | -67.01327 | 36805 ft | 522 kts | 90° |
| 2026-05-04 22:07 | 44.90229 | -66.91086 | 36789 ft | 522 kts | 91° |
| 2026-05-04 22:07 | 44.90194 | -66.80841 | 36781 ft | 523 kts | 91° |
| 2026-05-04 22:08 | 44.90154 | -66.70583 | 36787 ft | 523 kts | 91° |
| 2026-05-04 22:08 | 44.90109 | -66.60327 | 36790 ft | 523 kts | 91° |
| 2026-05-04 22:09 | 44.90053 | -66.50115 | 36793 ft | 524 kts | 91° |
| 2026-05-04 22:09 | 44.89991 | -66.39828 | 36792 ft | 525 kts | 91° |
| 2026-05-04 22:10 | 44.90454 | -66.29562 | 36787 ft | 526 kts | 84° |
| 2026-05-04 22:10 | 44.91199 | -66.19299 | 36789 ft | 526 kts | 84° |
| 2026-05-04 22:11 | 44.91946 | -66.09005 | 36797 ft | 527 kts | 84° |
| 2026-05-04 22:11 | 44.92668 | -65.98721 | 36802 ft | 527 kts | 84° |
| 2026-05-04 22:12 | 44.93372 | -65.88412 | 36815 ft | 527 kts | 84° |
| 2026-05-04 22:12 | 44.94061 | -65.78101 | 36813 ft | 527 kts | 84° |
| 2026-05-04 22:12 | 44.94405 | -65.72954 | 36498 ft | 527 kts | 84° |
| 2026-05-04 22:13 | 44.94746 | -65.67812 | 35281 ft | 526 kts | 84° |
| 2026-05-04 22:13 | 44.95083 | -65.62709 | 34291 ft | 519 kts | 84° |
| 2026-05-04 22:13 | 44.95417 | -65.57674 | 33324 ft | 511 kts | 84° |
| 2026-05-04 22:13 | 44.95744 | -65.52713 | 32353 ft | 503 kts | 84° |
| 2026-05-04 22:14 | 44.96061 | -65.47839 | 31449 ft | 494 kts | 84° |
| 2026-05-04 22:14 | 44.96369 | -65.43042 | 30587 ft | 486 kts | 83° |
| 2026-05-04 22:14 | 44.96669 | -65.38327 | 29744 ft | 478 kts | 83° |
| 2026-05-04 22:14 | 44.96962 | -65.33679 | 28736 ft | 471 kts | 83° |
| 2026-05-04 22:15 | 44.97243 | -65.29153 | 27756 ft | 466 kts | 83° |
| 2026-05-04 22:15 | 44.97527 | -65.24573 | 26997 ft | 456 kts | 83° |
| 2026-05-04 22:15 | 44.97798 | -65.20241 | 26544 ft | 445 kts | 83° |
| 2026-05-04 22:15 | 44.98072 | -65.15888 | 26002 ft | 445 kts | 83° |
| 2026-05-04 22:16 | 44.98348 | -65.11484 | 25484 ft | 444 kts | 84° |
| 2026-05-04 22:16 | 44.98612 | -65.07215 | 24948 ft | 444 kts | 84° |
| 2026-05-04 22:16 | 44.98879 | -65.02865 | 24398 ft | 444 kts | 84° |
| 2026-05-04 22:16 | 44.99143 | -64.98512 | 23858 ft | 445 kts | 84° |
| 2026-05-04 22:17 | 44.99403 | -64.94152 | 23316 ft | 445 kts | 84° |
| 2026-05-04 22:17 | 44.99661 | -64.89803 | 22674 ft | 445 kts | 84° |
| 2026-05-04 22:17 | 44.99916 | -64.85495 | 22196 ft | 435 kts | 84° |
| 2026-05-04 22:17 | 45.00165 | -64.81272 | 21524 ft | 425 kts | 84° |
| 2026-05-04 22:18 | 45.00407 | -64.77171 | 21016 ft | 412 kts | 84° |
| 2026-05-04 22:18 | 45.00639 | -64.73191 | 20484 ft | 401 kts | 85° |
| 2026-05-04 22:18 | 45.00862 | -64.69316 | 20018 ft | 390 kts | 85° |
| 2026-05-04 22:18 | 45.01081 | -64.65546 | 19541 ft | 381 kts | 85° |
| 2026-05-04 22:19 | 45.01294 | -64.61854 | 19083 ft | 372 kts | 85° |
| 2026-05-04 22:19 | 45.01500 | -64.58247 | 18627 ft | 365 kts | 86° |
| 2026-05-04 22:19 | 45.01699 | -64.54683 | 18175 ft | 363 kts | 86° |
| 2026-05-04 22:19 | 45.01896 | -64.51139 | 17853 ft | 359 kts | 86° |
| 2026-05-04 22:20 | 45.02092 | -64.47605 | 17479 ft | 360 kts | 86° |
| 2026-05-04 22:20 | 45.02286 | -64.44091 | 17040 ft | 357 kts | 86° |
| 2026-05-04 22:20 | 45.02479 | -64.40601 | 16611 ft | 356 kts | 86° |
| 2026-05-04 22:20 | 45.02676 | -64.36985 | 16175 ft | 378 kts | 86° |
| 2026-05-04 22:21 | 45.02878 | -64.33262 | 15727 ft | 381 kts | 86° |
| 2026-05-04 22:21 | 45.03080 | -64.29531 | 15275 ft | 381 kts | 86° |
| 2026-05-04 22:21 | 45.03280 | -64.25798 | 14829 ft | 381 kts | 86° |
| 2026-05-04 22:21 | 45.03479 | -64.22094 | 14584 ft | 374 kts | 86° |
| 2026-05-04 22:22 | 45.03675 | -64.18452 | 14214 ft | 368 kts | 86° |
| 2026-05-04 22:22 | 45.03866 | -64.14859 | 13558 ft | 365 kts | 85° |
| 2026-05-04 22:22 | 45.04054 | -64.11292 | 13020 ft | 363 kts | 86° |
| 2026-05-04 22:22 | 45.04240 | -64.07735 | 12583 ft | 361 kts | 86° |
| 2026-05-04 22:23 | 45.04422 | -64.04256 | 12143 ft | 359 kts | 86° |
| 2026-05-04 22:23 | 45.04604 | -64.00751 | 11721 ft | 356 kts | 85° |
| 2026-05-04 22:23 | 45.04785 | -63.97272 | 11277 ft | 354 kts | 86° |
| 2026-05-04 22:23 | 45.04965 | -63.93810 | 10834 ft | 351 kts | 85° |
| 2026-05-04 22:24 | 45.05143 | -63.90374 | 10376 ft | 349 kts | 85° |
| 2026-05-04 22:24 | 45.05317 | -63.86965 | 9918 ft | 346 kts | 86° |
| 2026-05-04 22:24 | 45.05487 | -63.83583 | 9418 ft | 344 kts | 85° |
| 2026-05-04 22:24 | 45.05652 | -63.80215 | 8945 ft | 342 kts | 86° |
| 2026-05-04 22:25 | 45.05812 | -63.76900 | 8584 ft | 330 kts | 86° |
| 2026-05-04 22:25 | 45.05962 | -63.73777 | 8449 ft | 307 kts | 86° |
| 2026-05-04 22:25 | 45.06102 | -63.70858 | 8290 ft | 289 kts | 86° |
| 2026-05-04 22:25 | 45.06237 | -63.68064 | 7888 ft | 283 kts | 86° |
| 2026-05-04 22:26 | 45.06373 | -63.65289 | 7434 ft | 281 kts | 86° |
| 2026-05-04 22:26 | 45.06506 | -63.62565 | 6831 ft | 276 kts | 86° |
| 2026-05-04 22:26 | 45.06638 | -63.59847 | 6194 ft | 277 kts | 87° |
| 2026-05-04 22:26 | 45.06767 | -63.57142 | 5746 ft | 275 kts | 87° |
| 2026-05-04 22:27 | 45.06892 | -63.54464 | 5509 ft | 271 kts | 88° |
| 2026-05-04 22:27 | 45.07016 | -63.51809 | 5378 ft | 270 kts | 88° |
| 2026-05-04 22:27 | 45.07132 | -63.49160 | 5258 ft | 269 kts | 92° |
| 2026-05-04 22:27 | 45.06888 | -63.46585 | 5137 ft | 257 kts | 113° |
| 2026-05-04 22:28 | 45.06175 | -63.44316 | 4743 ft | 253 kts | 130° |
| 2026-05-04 22:28 | 45.05528 | -63.42927 | 4379 ft | 256 kts | 131° |
| 2026-05-04 22:28 | 45.04516 | -63.40887 | 4001 ft | 247 kts | 131° |
| 2026-05-04 22:28 | 45.03446 | -63.39140 | 3708 ft | 227 kts | 154° |
| 2026-05-04 22:29 | 45.02069 | -63.38441 | 3472 ft | 198 kts | 187° |
| 2026-05-04 22:29 | 45.00805 | -63.38721 | 3293 ft | 176 kts | 213° |
| 2026-05-04 22:29 | 44.99832 | -63.39579 | 3150 ft | 157 kts | 223° |
| 2026-05-04 22:29 | 44.98979 | -63.40422 | 2923 ft | 141 kts | 224° |
| 2026-05-04 22:30 | 44.98207 | -63.41188 | 2728 ft | 131 kts | 224° |
| 2026-05-04 22:30 | 44.97467 | -63.41925 | 2588 ft | 128 kts | 224° |
| 2026-05-04 22:30 | 44.96750 | -63.42637 | 2403 ft | 125 kts | 224° |
| 2026-05-04 22:30 | 44.96043 | -63.43340 | 2234 ft | 124 kts | 224° |
| 2026-05-04 22:31 | 44.95336 | -63.44042 | 2064 ft | 124 kts | 222° |
| 2026-05-04 22:31 | 44.94632 | -63.44741 | 1887 ft | 124 kts | 222° |
| 2026-05-04 22:31 | 44.93938 | -63.45428 | 1731 ft | 123 kts | 221° |
| 2026-05-04 22:31 | 44.93240 | -63.46121 | 1563 ft | 122 kts | 221° |
| 2026-05-04 22:32 | 44.92539 | -63.46816 | 1380 ft | 127 kts | 221° |
| 2026-05-04 22:32 | 44.91816 | -63.47531 | 1220 ft | 125 kts | 218° |
| 2026-05-04 22:32 | 44.91109 | -63.48238 | 1022 ft | 124 kts | 220° |
| 2026-05-04 22:32 | 44.90405 | -63.48931 | 855 ft | 123 kts | 220° |
| 2026-05-04 22:33 | 44.89707 | -63.49631 | 682 ft | 123 kts | 220° |
| 2026-05-04 22:33 | 44.88996 | -63.50333 | 552 ft | 126 kts | 219° |
| 2026-05-04 22:33 | 44.88298 | -63.51017 | 460 ft | 111 kts | 221° |
| 2026-05-04 22:33 | 44.87801 | -63.51516 | 461 ft | 66 kts | 215° |
| 2026-05-04 22:34 | 44.87516 | -63.51789 | 457 ft | 38 kts | 216° |
| 2026-05-04 22:34 | 44.87446 | -63.52019 | 460 ft | 17 kts | 278° |
| 2026-05-04 22:34 | 44.87462 | -63.52073 | 459 ft | 0 kts | 299° |
| 2026-05-04 22:36 | 44.87464 | -63.52078 | 459 ft | 3 kts | 300° |
| 2026-05-04 22:37 | 44.87494 | -63.52117 | 460 ft | 9 kts | 338° |
| 2026-05-04 22:37 | 44.87549 | -63.52085 | 460 ft | 9 kts | 33° |
| 2026-05-04 22:37 | 44.87597 | -63.52038 | 458 ft | 8 kts | 37° |
| 2026-05-04 22:37 | 44.87658 | -63.51977 | 459 ft | 14 kts | 34° |
| 2026-05-04 22:38 | 44.87740 | -63.51898 | 458 ft | 14 kts | 34° |
| 2026-05-04 22:38 | 44.87817 | -63.51823 | 459 ft | 13 kts | 35° |
| 2026-05-04 22:38 | 44.87889 | -63.51748 | 459 ft | 13 kts | 36° |
| 2026-05-04 22:38 | 44.87979 | -63.51658 | 459 ft | 18 kts | 37° |
| 2026-05-04 22:39 | 44.88081 | -63.51557 | 459 ft | 17 kts | 35° |
| 2026-05-04 22:39 | 44.88177 | -63.51462 | 458 ft | 17 kts | 35° |
| 2026-05-04 22:39 | 44.88273 | -63.51370 | 456 ft | 16 kts | 34° |
| 2026-05-04 22:39 | 44.88361 | -63.51282 | 457 ft | 15 kts | 39° |
| 2026-05-04 22:40 | 44.88446 | -63.51203 | 458 ft | 14 kts | 7° |
| 2026-05-04 22:40 | 44.88537 | -63.51231 | 457 ft | 13 kts | 324° |
| 2026-05-04 22:40 | 44.88549 | -63.51345 | 457 ft | 11 kts | 268° |
| 2026-05-04 22:40 | 44.88548 | -63.51361 | 457 ft | 0 kts | 269° |